Terminal Aerodrome Forecast
Issued by NWS Pueblo, CO

Home | Current Version | Previous Version | Text Only | Print | Product List | Glossary On
Versions: 1 2 3 4 5 6 7 8 9 10 11 12 13 14 15 16 17 18 19 20 21 22 23 24 25 26 27 28 29 30 31 32 33
000
FTUS45 KPUB 302015 AAB
TAFCOS
TAF AMD
KCOS 302015Z 3020/3118 03015KT P6SM VCTS SCT060CB SCT150
      TEMPO 3020/3023 VRB20G32KT P6SM -TSRA BKN060CB
     FM310000 35014KT P6SM VCTS SCT060CB BKN100
     FM310200 35010KT P6SM FEW060 SCT100
     FM311000 36015G25KT P6SM SCT080
     FM311500 01015KT P6SM SCT015 SCT080=

USA.gov is the U.S. government's official web portal to all federal, state and local government web resources and services.